Flight Track Log - Related Links

Times and Time Zones

All times are in EDT time to prevent confusion due to time zone crossing. See the EJA982 flight status page for this flight to view local times or setup timezone preferences in your user account.

Time Position Orientation Groundspeed Altitude Reporting Facility
EDT Latitude Longitude Course Direction KTS MPH feet Rate Location/Type
Fri 02:11:21 PM 38.9667 -77.5167 351° North 251 289 2,800  Level Potomac TRACON
Fri 02:12:22 PM 39.0500 -77.5333 351° North 286 329 4,500 3,570 Climbing Potomac TRACON
Fri 02:13:22 PM 39.1167 -77.5667 339° North 295 339 10,000 5,050 Climbing Potomac TRACON
Fri 02:14:22 PM 39.2000 -77.6167 335° Northwest 302 348 14,600 3,408 Climbing Potomac TRACON
Fri 02:15:27 PM 39.2786 -77.6936 323° Northwest 365 420 17,100 1,200 Climbing Washington Center
Fri 02:16:27 PM 39.3625 -77.7792 322° Northwest 382 440 17,100 446 Level Washington Center
Fri 02:17:28 PM 39.4611 -77.8494 331° Northwest 396 456 18,000 1,565 Climbing Washington Center
Fri 02:19:08 PM 39.6133 -77.9475 334° Northwest 391 450 21,300 2,025 Climbing Cleveland Center
Fri 02:20:08 PM 39.7086 -78.0114 333° Northwest 386 444 23,400 2,200 Climbing Cleveland Center
Fri 02:21:08 PM 39.8039 -78.0725 334° Northwest 381 438 25,700 1,300 Climbing Cleveland Center
Fri 02:22:08 PM 39.8833 -78.1753 315° West 381 438 26,000 150 Climbing Cleveland Center
Fri 02:23:08 PM 39.9592 -78.3189 305° West 411 473 26,000  Level Cleveland Center
Fri 02:24:08 PM 40.0367 -78.4517 307° West 439 505 26,000  Level Cleveland Center
Fri 02:25:08 PM 40.1144 -78.5878 307° West 454 522 26,000  Level Cleveland Center
Fri 02:26:08 PM 40.1875 -78.7214 306° West 460 529 26,000  Level Cleveland Center
Fri 02:27:08 PM 40.2625 -78.8528 307° West 465 535 26,000  Level Cleveland Center
Fri 02:28:08 PM 40.3375 -78.9869 306° West 465 535 26,000  Level Cleveland Center
Fri 02:29:08 PM 40.4142 -79.1186 307° West 465 535 26,000  Level Cleveland Center
Fri 02:30:08 PM 40.4867 -79.2536 305° West 465 535 26,000  Level Cleveland Center
Fri 02:31:08 PM 40.5569 -79.3753 307° West 460 529 26,000  Level Cleveland Center
Fri 02:32:08 PM 40.6292 -79.5053 306° West 460 529 26,000 -250 Level Cleveland Center
Fri 02:33:08 PM 40.7033 -79.6383 306° West 460 529 25,500 -750 Descending Cleveland Center
Fri 02:34:08 PM 40.7750 -79.7689 306° West 450 518 24,500 -1,000 Descending Cleveland Center
Fri 02:35:08 PM 40.8447 -79.8997 305° West 440 506 23,500 -1,000 Descending Cleveland Center
Fri 02:36:08 PM 40.9122 -80.0281 305° West 440 506 22,500 -1,000 Descending Cleveland Center
Fri 02:37:08 PM 40.9814 -80.1514 307° West 435 501 21,500 -1,000 Descending Cleveland Center
Fri 02:38:08 PM 41.0508 -80.2775 306° West 430 495 20,500 -1,000 Descending Cleveland Center
Fri 02:39:08 PM 41.1156 -80.4011 305° West 424 488 19,500 -1,250 Descending Cleveland Center
Fri 02:40:08 PM 41.1803 -80.5253 305° West 413 475 18,000 -1,850 Descending Cleveland Center
Fri 02:41:08 PM 41.2428 -80.6439 305° West 407 468 15,800 -2,250 Descending Cleveland Center
Fri 02:42:08 PM 41.3136 -80.7794 305° West 402 463 13,500 -2,357 Descending Cleveland Center
Fri 02:42:32 PM 41.3364 -80.8211 306° West 398 458 12,500 -2,200 Descending Cleveland Center
Fri 02:43:08 PM 41.3739 -80.8903 306° West 395 455 11,300 -1,967 Descending Cleveland Center
Fri 02:43:33 PM 41.3903 -80.9264 301° West 325 374 10,500 -1,800 Descending Cleveland Center
Fri 02:44:08 PM 41.4214 -80.9847 305° West 352 405 9,500 -1,672 Descending Cleveland Center
Fri 02:44:34 PM 41.4400 -81.0236 303° West 268 308 8,800 -1,500 Descending Cleveland Center
Fri 02:45:08 PM 41.4650 -81.0653 309° West 294 338 8,000 -1,500 Descending Cleveland Center
Fri 02:45:34 PM 41.4794 -81.0986 300° West 254 292 7,300 -1,400 Descending Cleveland Center
Fri 02:46:08 PM 41.5022 -81.1403 306° West 259 298 6,600 -1,770 Descending Cleveland Center
Fri 02:46:35 PM 41.5144 -81.1767 294° West 238 274 5,500 -2,500 Descending Cleveland Center
Fri 02:47:08 PM 41.5225 -81.2294 282° West 240 276 4,100 -1,475 Descending Cleveland Center
Fri 02:47:36 PM 41.5283 -81.2739 280° West 274 315 4,000 -100 Descending Cleveland Center
Fri 02:48:08 PM 41.5364 -81.3239 282° West 256 295 4,000  Level Cleveland Center
Fri 02:48:37 PM 41.5425 -81.3683 280° West 255 293 4,000  Level Cleveland Center
Fri 02:49:08 PM 41.5483 -81.4156 279° West 256 295 4,000  Level Cleveland Center
Fri 02:49:38 PM 41.5542 -81.4628 279° West 252 290 4,000 -67 Level Cleveland Center
Fri 02:50:38 PM 41.5703 -81.5600 283° West 267 307 3,900 -595 Descending Cleveland Center
Fri 02:51:39 PM 41.5694 -81.6461 269° West 227 261 2,800 -934 Descending Cleveland Center
Fri 02:52:40 PM 41.5417 -81.7178 243° Southwest 212 244 2,000 -738 Descending Cleveland Center
Fri 02:53:41 PM 41.5039 -81.7256 189° South 151 174 1,300 -689 Descending Cleveland Center
Fri 02:55:00 PM 41.5175 -81.6833 66° East  Level Estimated
Fri 03:02:00 PM 41.5175 -81.6833 66° East  Level Estimated

Login

Don't have an account? Register now (free) for customized features, flight alerts, and more!